Time;durP1;ratioP1;P1;durP2;ratioP2;P2;SDS_P1;SDS_P2;PMS_P1;PMS_P2;Temp;Humidity;BMP_temperature;BMP_pressure;BME280_temperature;BME280_humidity;BME280_pressure;Samples;Min_cycle;Max_cycle;Signal;HPM_P1;HPM_P2
2023/06/03 00:02:08;;;;;;;3.40;2.10;;;15.20;51.20;;;;;;5011237;28;20221;-56
2023/06/03 00:04:41;;;;;;;3.28;2.35;;;15.10;51.20;;;;;;5011306;28;20204;-57
2023/06/03 00:07:11;;;;;;;3.00;1.95;;;15.20;51.30;;;;;;5011611;28;20280;-57
2023/06/03 00:09:42;;;;;;;2.72;1.67;;;15.20;51.40;;;;;;5011730;28;20700;-58
2023/06/03 00:12:13;;;;;;;3.03;1.67;;;15.20;51.40;;;;;;5011607;28;20220;-56
2023/06/03 00:14:47;;;;;;;2.30;1.80;;;15.20;51.40;;;;;;5011528;28;20193;-55
2023/06/03 00:17:21;;;;;;;2.03;1.50;;;15.20;51.40;;;;;;5011372;28;20235;-56
2023/06/03 00:19:52;;;;;;;2.03;1.50;;;15.30;51.50;;;;;;5010510;28;20216;-55
2023/06/03 00:22:23;;;;;;;2.05;1.60;;;15.30;51.60;;;;;;5010509;28;20217;-53
2023/06/03 00:24:54;;;;;;;3.13;1.73;;;15.30;52.20;;;;;;5010607;28;20237;-55
2023/06/03 00:27:24;;;;;;;2.25;1.88;;;15.30;51.60;;;;;;5010849;28;20204;-55
2023/06/03 00:29:57;;;;;;;2.85;1.60;;;15.30;51.60;;;;;;5010461;28;20737;-55
2023/06/03 00:32:27;;;;;;;3.30;1.67;;;15.30;51.60;;;;;;5010950;28;20229;-55
2023/06/03 00:34:58;;;;;;;3.22;1.70;;;15.30;51.60;;;;;;5010947;28;20957;-55
2023/06/03 00:37:29;;;;;;;4.53;1.85;;;15.30;51.60;;;;;;5010727;28;20232;-54
2023/06/03 00:40:00;;;;;;;2.10;1.33;;;15.40;51.70;;;;;;5010445;28;20259;-54
2023/06/03 00:42:30;;;;;;;3.13;1.98;;;15.40;51.70;;;;;;5012616;28;20217;-57
2023/06/03 00:45:03;;;;;;;2.85;1.40;;;15.40;51.70;;;;;;5013962;28;20197;-56
2023/06/03 00:47:33;;;;;;;3.42;2.03;;;15.40;51.70;;;;;;5014050;28;20200;-56
2023/06/03 00:50:04;;;;;;;5.25;1.90;;;15.40;51.70;;;;;;5014578;28;20207;-57
2023/06/03 00:52:36;;;;;;;2.72;1.60;;;15.40;51.70;;;;;;5014738;28;20236;-55
2023/06/03 00:55:07;;;;;;;2.67;1.35;;;15.40;51.70;;;;;;5014868;28;20200;-55
2023/06/03 00:57:38;;;;;;;3.80;1.70;;;15.50;51.80;;;;;;5014419;28;20712;-57
2023/06/03 01:00:11;;;;;;;4.47;1.70;;;15.50;51.80;;;;;;5013899;28;20199;-55
2023/06/03 01:02:44;;;;;;;4.65;1.70;;;15.50;51.90;;;;;;5013918;28;20208;-56
2023/06/03 01:05:15;;;;;;;2.65;1.70;;;15.50;51.90;;;;;;5014706;28;20253;-55
2023/06/03 01:08:00;;;;;;;4.15;1.70;;;15.50;51.90;;;;;;5014561;28;20255;-57
2023/06/03 01:10:37;;;;;;;5.68;1.40;;;15.50;51.80;;;;;;5014508;28;20219;-56
2023/06/03 01:13:13;;;;;;;1.85;1.40;;;15.50;51.80;;;;;;5014215;28;20231;-55
2023/06/03 01:15:50;;;;;;;2.33;1.40;;;15.60;51.90;;;;;;5014020;28;20201;-56
2023/06/03 01:18:22;;;;;;;3.10;1.45;;;15.60;51.90;;;;;;5014799;28;20219;-56
2023/06/03 01:20:53;;;;;;;2.47;1.33;;;15.60;51.80;;;;;;5014187;28;20784;-54
2023/06/03 01:23:28;;;;;;;3.25;1.52;;;15.60;51.90;;;;;;5013572;28;20217;-56
2023/06/03 01:26:00;;;;;;;3.70;1.70;;;15.60;51.90;;;;;;5013627;28;20258;-56
2023/06/03 01:28:31;;;;;;;2.85;1.50;;;15.70;52.10;;;;;;5014319;28;20660;-57
2023/06/03 01:31:04;;;;;;;2.38;1.40;;;15.70;52.10;;;;;;5014157;28;20193;-56
2023/06/03 01:33:35;;;;;;;4.47;1.60;;;15.70;52.20;;;;;;5013393;28;20623;-57
2023/06/03 01:36:07;;;;;;;1.90;1.30;;;15.70;52.20;;;;;;5013598;28;20673;-56
2023/06/03 01:38:40;;;;;;;5.07;1.90;;;15.70;52.20;;;;;;5013456;28;20208;-55
2023/06/03 01:41:11;;;;;;;5.95;1.88;;;15.70;52.10;;;;;;5013278;28;20258;-54
2023/06/03 01:43:42;;;;;;;3.55;1.40;;;15.80;52.20;;;;;;5013555;28;20649;-58
2023/06/03 01:46:12;;;;;;;2.75;1.42;;;15.80;52.20;;;;;;5013662;28;20657;-52
2023/06/03 01:48:43;;;;;;;2.97;1.52;;;15.80;52.20;;;;;;5013706;28;20207;-58
2023/06/03 01:51:14;;;;;;;3.17;1.20;;;15.80;52.20;;;;;;5013727;28;20201;-54
2023/06/03 01:53:46;;;;;;;3.63;1.77;;;15.90;52.30;;;;;;5012311;28;20204;-56
2023/06/03 01:56:23;;;;;;;2.38;1.33;;;15.80;52.30;;;;;;5013057;28;20279;-54
2023/06/03 01:58:54;;;;;;;4.53;1.88;;;15.90;52.40;;;;;;5013340;28;20203;-57
2023/06/03 02:01:25;;;;;;;3.22;1.88;;;15.90;52.40;;;;;;5013294;28;20200;-57
2023/06/03 02:03:56;;;;;;;1.95;1.40;;;15.90;52.40;;;;;;5013514;28;20621;-56
2023/06/03 02:06:27;;;;;;;2.00;1.27;;;15.90;52.30;;;;;;5013210;28;20621;-56
2023/06/03 02:08:59;;;;;;;2.20;1.20;;;15.90;52.30;;;;;;5013362;28;20653;-58
2023/06/03 02:11:30;;;;;;;2.45;1.17;;;16.00;52.30;;;;;;5013349;28;20200;-55
2023/06/03 02:14:00;;;;;;;4.03;1.67;;;16.00;52.30;;;;;;5013078;28;20197;-56
2023/06/03 02:16:31;;;;;;;2.40;1.38;;;16.00;52.20;;;;;;5013168;28;20229;-57
2023/06/03 02:19:03;;;;;;;2.88;1.27;;;16.10;52.20;;;;;;5013900;28;20568;-55
2023/06/03 02:21:34;;;;;;;3.70;1.52;;;16.00;52.20;;;;;;5013354;28;20634;-59
2023/06/03 02:24:07;;;;;;;3.35;1.45;;;16.10;52.30;;;;;;5012931;28;20668;-56
2023/06/03 02:26:38;;;;;;;3.88;1.40;;;16.10;52.30;;;;;;5012982;28;20236;-57
2023/06/03 02:29:10;;;;;;;3.88;1.42;;;16.10;52.30;;;;;;5013280;28;20200;-57
2023/06/03 02:31:40;;;;;;;2.97;1.30;;;16.10;52.30;;;;;;5012527;28;20279;-59
2023/06/03 02:34:11;;;;;;;3.35;1.30;;;16.20;52.40;;;;;;5012656;28;20196;-58
2023/06/03 02:36:42;;;;;;;3.08;1.40;;;16.20;52.60;;;;;;5012575;28;20225;-59
2023/06/03 02:39:15;;;;;;;5.80;1.33;;;16.20;52.80;;;;;;5012391;28;20295;-59
2023/06/03 02:41:48;;;;;;;3.75;1.40;;;16.30;52.80;;;;;;5012501;28;20653;-59
2023/06/03 02:44:19;;;;;;;3.00;1.40;;;16.30;52.70;;;;;;5012214;28;20279;-59
2023/06/03 02:46:49;;;;;;;4.40;1.60;;;16.30;52.60;;;;;;5012430;28;20215;-59
2023/06/03 02:49:20;;;;;;;5.30;1.50;;;16.40;52.60;;;;;;5012544;28;20212;-59
2023/06/03 02:51:53;;;;;;;3.30;1.35;;;16.40;52.50;;;;;;5012691;28;20224;-59
2023/06/03 02:54:26;;;;;;;4.97;1.70;;;16.40;52.50;;;;;;5012550;28;20244;-59
2023/06/03 02:56:56;;;;;;;4.50;1.50;;;16.40;52.40;;;;;;5012420;28;20693;-60
2023/06/03 02:59:27;;;;;;;5.38;1.73;;;16.40;52.40;;;;;;5012474;28;20677;-59
2023/06/03 03:01:58;;;;;;;5.35;1.40;;;16.40;52.40;;;;;;5012387;28;20217;-59
2023/06/03 03:04:33;;;;;;;4.50;1.40;;;16.50;52.40;;;;;;5012228;28;20200;-59
2023/06/03 03:07:05;;;;;;;3.35;1.33;;;16.50;52.40;;;;;;5012343;28;20203;-59
2023/06/03 03:09:38;;;;;;;3.40;1.42;;;16.50;52.40;;;;;;5012457;28;20203;-60
2023/06/03 03:12:09;;;;;;;4.72;1.83;;;16.50;52.40;;;;;;5011860;28;20233;-59
2023/06/03 03:14:40;;;;;;;3.58;1.42;;;16.60;52.40;;;;;;5011950;28;20672;-59
2023/06/03 03:17:11;;;;;;;2.05;1.20;;;16.60;52.30;;;;;;5012205;28;20590;-59
2023/06/03 03:19:41;;;;;;;5.15;1.40;;;16.60;52.30;;;;;;5012515;28;20204;-59
2023/06/03 03:22:12;;;;;;;3.65;1.70;;;16.60;52.30;;;;;;5011949;28;20221;-59
2023/06/03 03:24:44;;;;;;;3.15;1.30;;;16.60;52.20;;;;;;5011742;28;20201;-59
2023/06/03 03:27:15;;;;;;;3.13;1.30;;;16.70;52.20;;;;;;5012059;28;20208;-59
2023/06/03 03:29:47;;;;;;;3.63;1.58;;;16.70;52.20;;;;;;5011750;28;20201;-60
2023/06/03 03:32:19;;;;;;;3.15;1.40;;;16.70;52.20;;;;;;5011352;28;20204;-59
2023/06/03 03:34:57;;;;;;;2.22;1.52;;;16.70;52.10;;;;;;5011869;28;20725;-59
2023/06/03 03:37:28;;;;;;;2.72;1.00;;;16.70;52.10;;;;;;5011806;28;20227;-59
2023/06/03 03:40:01;;;;;;;3.13;1.30;;;16.70;52.10;;;;;;5011700;28;20193;-59
2023/06/03 03:42:31;;;;;;;2.65;1.13;;;16.70;52.10;;;;;;5011686;28;20217;-59
2023/06/03 03:45:03;;;;;;;1.92;1.08;;;16.70;52.10;;;;;;5011253;28;20193;-60
2023/06/03 03:47:34;;;;;;;2.47;1.30;;;16.70;52.00;;;;;;5011353;28;20201;-59
2023/06/03 03:50:06;;;;;;;4.00;1.20;;;16.80;52.10;;;;;;5011266;28;20577;-59
2023/06/03 03:52:37;;;;;;;3.17;1.50;;;16.80;52.10;;;;;;5011358;28;20228;-60
2023/06/03 03:55:11;;;;;;;2.55;1.15;;;16.80;52.00;;;;;;5011490;28;20199;-60
2023/06/03 03:57:41;;;;;;;4.03;1.20;;;16.80;52.00;;;;;;5011141;28;20220;-59
2023/06/03 04:00:13;;;;;;;5.45;1.50;;;16.90;52.10;;;;;;5011112;28;20205;-59
2023/06/03 04:02:45;;;;;;;4.05;1.30;;;16.90;52.00;;;;;;5011200;28;20232;-59
2023/06/03 04:05:16;;;;;;;2.85;1.40;;;16.90;52.00;;;;;;5010943;28;20202;-59
2023/06/03 04:07:48;;;;;;;2.75;1.30;;;16.90;52.00;;;;;;5010837;28;20196;-60
2023/06/03 04:10:24;;;;;;;3.63;1.25;;;16.90;51.90;;;;;;5010531;28;20736;-59
2023/06/03 04:12:54;;;;;;;2.58;1.45;;;16.90;51.90;;;;;;5010039;28;20299;-58
2023/06/03 04:15:30;;;;;;;3.67;1.45;;;17.00;51.90;;;;;;5010506;28;20204;-60
2023/06/03 04:18:01;;;;;;;3.55;1.27;;;17.00;51.80;;;;;;5013776;28;20645;-60
2023/06/03 04:20:43;;;;;;;4.50;1.33;;;17.00;51.80;;;;;;5015039;28;20688;-58
2023/06/03 04:23:19;;;;;;;2.65;1.42;;;17.00;51.90;;;;;;5014702;28;20303;-59
2023/06/03 04:25:53;;;;;;;4.50;1.23;;;17.00;51.90;;;;;;5015548;28;20454;-59
2023/06/03 04:28:24;;;;;;;4.20;1.40;;;17.10;51.90;;;;;;5014944;28;20228;-59
2023/06/03 04:30:54;;;;;;;3.30;1.50;;;17.00;51.90;;;;;;5015133;28;20197;-59
2023/06/03 04:33:25;;;;;;;3.80;1.75;;;17.10;51.90;;;;;;5014507;28;20225;-58
2023/06/03 04:35:56;;;;;;;2.58;1.52;;;17.10;51.80;;;;;;5014605;28;20203;-59
2023/06/03 04:38:26;;;;;;;4.07;1.48;;;17.10;51.70;;;;;;5015147;28;20236;-59
2023/06/03 04:41:01;;;;;;;4.03;1.40;;;17.10;51.70;;;;;;5015068;28;20200;-59
2023/06/03 04:43:33;;;;;;;4.00;1.40;;;17.10;51.70;;;;;;5014551;28;20212;-59
2023/06/03 04:46:05;;;;;;;2.50;1.23;;;17.10;51.60;;;;;;5001229;28;20200;-59
2023/06/03 04:48:35;;;;;;;3.92;1.40;;;17.10;51.60;;;;;;5014848;28;20346;-60
2023/06/03 04:51:07;;;;;;;2.63;1.40;;;17.10;51.70;;;;;;5014734;28;20197;-59
2023/06/03 04:53:38;;;;;;;3.25;1.30;;;17.10;51.60;;;;;;5014854;28;20270;-59
2023/06/03 04:56:11;;;;;;;8.32;4.70;;;17.00;51.60;;;;;;5014773;28;20723;-59
2023/06/03 04:58:41;;;;;;;20.65;11.55;;;17.10;51.60;;;;;;5014129;28;20228;-59
2023/06/03 05:01:12;;;;;;;37.38;33.38;;;17.00;51.20;;;;;;5013944;28;20200;-59
2023/06/03 05:03:44;;;;;;;28.60;25.55;;;17.00;51.00;;;;;;5014238;28;20199;-59
2023/06/03 05:06:15;;;;;;;28.92;24.52;;;17.00;50.80;;;;;;5014530;28;20207;-59
2023/06/03 05:08:47;;;;;;;25.33;20.25;;;17.00;50.70;;;;;;5013472;28;20193;-59
2023/06/03 05:11:20;;;;;;;19.92;13.65;;;16.90;50.50;;;;;;5013877;28;20203;-59
2023/06/03 05:13:51;;;;;;;18.60;10.15;;;16.90;50.40;;;;;;5014734;28;20239;-59
2023/06/03 05:16:21;;;;;;;25.17;22.48;;;16.90;50.40;;;;;;5014217;28;20209;-59
2023/06/03 05:18:52;;;;;;;15.18;10.50;;;16.80;50.70;;;;;;4997599;28;20228;-58
2023/06/03 05:21:23;;;;;;;16.05;11.10;;;16.80;50.60;;;;;;4994212;28;20213;-58
2023/06/03 05:23:53;;;;;;;18.38;10.15;;;16.70;50.30;;;;;;4994379;28;20227;-58
2023/06/03 05:26:26;;;;;;;16.27;8.90;;;16.70;50.10;;;;;;4994377;28;20202;-58
2023/06/03 05:28:57;;;;;;;8.85;4.80;;;16.60;49.90;;;;;;5003825;28;20193;-58
2023/06/03 05:31:27;;;;;;;6.93;3.80;;;16.60;49.90;;;;;;5013236;28;20197;-56
2023/06/03 05:33:59;;;;;;;8.65;3.65;;;16.50;49.80;;;;;;5013757;28;20555;-57
2023/06/03 05:36:30;;;;;;;7.28;4.60;;;16.50;49.80;;;;;;5013316;28;20276;-58
2023/06/03 05:39:00;;;;;;;10.90;6.93;;;16.40;49.90;;;;;;5013694;28;20224;-55
2023/06/03 05:41:33;;;;;;;11.65;8.93;;;16.30;50.00;;;;;;5013569;28;20656;-58
2023/06/03 05:44:04;;;;;;;12.50;6.45;;;16.30;50.00;;;;;;5012972;28;20260;-55
2023/06/03 05:46:34;;;;;;;8.82;5.68;;;16.30;50.40;;;;;;5013114;28;20252;-57
2023/06/03 05:49:05;;;;;;;9.10;5.53;;;16.20;50.40;;;;;;5013376;28;20649;-57
2023/06/03 05:51:36;;;;;;;38.78;24.70;;;16.20;50.10;;;;;;5013003;28;20649;-58
2023/06/03 05:54:07;;;;;;;29.17;19.80;;;16.20;50.00;;;;;;5013531;28;20613;-58
2023/06/03 05:56:39;;;;;;;13.70;8.98;;;16.10;50.10;;;;;;5013639;28;20207;-57
2023/06/03 05:59:10;;;;;;;10.95;5.10;;;16.10;50.70;;;;;;5013053;28;20232;-57
2023/06/03 06:01:41;;;;;;;9.57;3.95;;;16.00;50.10;;;;;;5012965;28;20248;-55
2023/06/03 06:04:11;;;;;;;8.20;3.10;;;16.00;50.10;;;;;;5013576;28;20201;-55
2023/06/03 06:06:42;;;;;;;5.93;2.60;;;15.90;50.00;;;;;;5013477;28;20208;-57
2023/06/03 06:09:13;;;;;;;6.43;2.75;;;15.90;50.00;;;;;;5013361;28;20208;-57
2023/06/03 06:11:45;;;;;;;5.70;2.45;;;15.80;49.80;;;;;;5013066;28;20224;-57
2023/06/03 06:14:16;;;;;;;6.07;2.10;;;15.80;49.80;;;;;;5013070;28;20276;-58
2023/06/03 06:16:51;;;;;;;7.07;1.98;;;15.80;49.80;;;;;;5012627;28;20668;-56
2023/06/03 06:19:22;;;;;;;7.68;2.20;;;15.70;49.70;;;;;;5012799;28;20216;-58
2023/06/03 06:21:53;;;;;;;7.75;2.20;;;15.60;49.80;;;;;;5013555;28;20228;-58
2023/06/03 06:24:23;;;;;;;8.80;2.63;;;15.60;50.30;;;;;;5012403;28;20201;-57
2023/06/03 06:26:59;;;;;;;8.20;5.05;;;15.60;49.70;;;;;;5011888;28;20555;-58
2023/06/03 06:29:30;;;;;;;8.52;5.35;;;15.50;49.70;;;;;;5012139;28;20196;-57
2023/06/03 06:32:01;;;;;;;38.65;24.58;;;15.50;49.70;;;;;;5012311;28;20221;-58
2023/06/03 06:34:32;;;;;;;35.20;24.23;;;15.50;49.80;;;;;;5012236;28;20627;-58
2023/06/03 06:37:03;;;;;;;30.02;17.27;;;15.50;49.90;;;;;;5012168;28;20201;-58
2023/06/03 06:39:58;;;;;;;23.52;13.73;;;15.40;49.90;;;;;;5011090;28;20246;-58
2023/06/03 06:42:34;;;;;;;28.98;19.20;;;15.30;49.90;;;;;;4987095;28;20213;-59
2023/06/03 06:45:16;;;;;;;38.67;24.17;;;15.30;49.90;;;;;;4993063;28;20197;-57
2023/06/03 06:47:47;;;;;;;44.60;28.60;;;15.20;49.90;;;;;;4993116;28;20202;-58
2023/06/03 06:50:38;;;;;;;81.70;49.28;;;15.20;50.00;;;;;;4992810;28;20527;-58
2023/06/03 06:53:10;;;;;;;82.18;48.92;;;15.10;50.00;;;;;;4992955;28;20222;-58
2023/06/03 06:55:49;;;;;;;49.03;31.42;;;15.10;50.00;;;;;;4992714;28;20659;-57
2023/06/03 06:58:22;;;;;;;32.90;20.08;;;15.00;50.00;;;;;;4992646;28;20603;-58
2023/06/03 07:00:53;;;;;;;30.00;21.63;;;15.00;50.00;;;;;;4998020;28;20193;-56
2023/06/03 07:03:24;;;;;;;30.98;17.33;;;14.90;50.00;;;;;;5012532;28;20225;-58
2023/06/03 07:05:54;;;;;;;21.25;14.15;;;14.80;49.90;;;;;;5012350;28;20201;-57
2023/06/03 07:08:26;;;;;;;48.70;34.42;;;14.80;49.90;;;;;;5012146;28;20193;-57
2023/06/03 07:11:00;;;;;;;42.28;30.80;;;14.70;49.80;;;;;;5012140;28;20263;-56
2023/06/03 07:13:32;;;;;;;23.83;15.30;;;14.60;49.80;;;;;;5011689;28;20216;-56
2023/06/03 07:16:03;;;;;;;19.27;10.63;;;14.60;49.90;;;;;;5011862;28;20228;-57
2023/06/03 07:18:34;;;;;;;19.98;11.32;;;14.50;50.00;;;;;;5012217;28;20228;-56
2023/06/03 07:21:05;;;;;;;31.95;19.83;;;14.50;50.20;;;;;;5027845;28;20787;-58
2023/06/03 07:23:36;;;;;;;29.27;16.77;;;14.40;50.40;;;;;;5031366;28;20212;-58
2023/06/03 07:26:07;;;;;;;22.50;14.45;;;14.40;50.60;;;;;;5030993;28;20562;-58
2023/06/03 07:28:40;;;;;;;21.40;13.13;;;14.30;50.80;;;;;;5031724;28;20196;-57
2023/06/03 07:31:13;;;;;;;18.30;10.05;;;14.30;51.00;;;;;;5015802;28;20193;-56
2023/06/03 07:33:51;;;;;;;13.50;6.63;;;14.30;51.10;;;;;;5011877;28;20196;-59
2023/06/03 07:36:24;;;;;;;11.27;5.82;;;14.20;51.20;;;;;;5011713;28;20196;-58
2023/06/03 07:39:02;;;;;;;11.20;6.35;;;14.20;51.40;;;;;;5011777;28;20228;-58
2023/06/03 07:41:43;;;;;;;11.82;5.97;;;14.20;51.50;;;;;;5011300;28;20193;-59
2023/06/03 07:44:18;;;;;;;9.88;7.00;;;14.10;51.60;;;;;;5011771;28;20205;-57
2023/06/03 07:46:55;;;;;;;12.35;7.63;;;14.10;51.80;;;;;;5011583;28;20202;-58
2023/06/03 07:49:26;;;;;;;12.98;7.32;;;14.10;52.00;;;;;;5011353;28;20200;-58
2023/06/03 07:51:56;;;;;;;9.57;6.60;;;14.10;53.00;;;;;;5010212;28;20222;-59
2023/06/03 07:54:29;;;;;;;10.50;7.32;;;14.10;53.70;;;;;;5011135;28;20196;-59
2023/06/03 07:57:01;;;;;;;14.45;9.13;;;14.10;54.30;;;;;;5010753;28;20193;-58
2023/06/03 07:59:34;;;;;;;12.75;7.32;;;14.10;53.50;;;;;;5011453;28;20271;-59
2023/06/03 08:02:05;;;;;;;12.13;7.28;;;14.20;53.20;;;;;;5011337;28;20217;-55
2023/06/03 08:04:37;;;;;;;10.75;7.57;;;14.20;53.10;;;;;;5011440;28;20251;-58
2023/06/03 08:07:08;;;;;;;12.43;6.15;;;14.10;53.00;;;;;;5011279;28;20650;-54
2023/06/03 08:09:39;;;;;;;11.85;5.32;;;14.10;53.00;;;;;;5011499;28;20201;-55
2023/06/03 08:12:11;;;;;;;9.50;5.75;;;14.10;53.00;;;;;;5010909;28;20707;-57
2023/06/03 08:14:44;;;;;;;12.35;5.90;;;14.10;53.00;;;;;;5011656;28;20606;-58
2023/06/03 08:17:15;;;;;;;10.30;4.82;;;14.10;53.10;;;;;;5011100;28;20272;-57
2023/06/03 08:19:48;;;;;;;13.75;6.25;;;14.10;53.10;;;;;;5011459;28;20228;-57
2023/06/03 08:22:43;;;;;;;12.05;7.93;;;14.10;53.30;;;;;;5011631;28;20693;-57
2023/06/03 08:25:14;;;;;;;11.93;6.45;;;14.00;53.30;;;;;;5011091;28;20661;-57
2023/06/03 08:27:45;;;;;;;10.63;4.60;;;14.00;53.30;;;;;;5011153;28;20205;-58
2023/06/03 08:30:20;;;;;;;8.65;3.08;;;14.00;53.30;;;;;;5010818;28;20201;-57
2023/06/03 08:32:51;;;;;;;11.25;4.00;;;14.00;53.30;;;;;;5010447;28;20621;-57
2023/06/03 08:35:22;;;;;;;15.82;8.10;;;14.00;53.30;;;;;;5011204;28;20197;-55
2023/06/03 08:37:54;;;;;;;10.68;5.05;;;14.00;53.30;;;;;;5011209;28;20250;-55
2023/06/03 08:40:25;;;;;;;14.20;8.70;;;14.00;53.20;;;;;;5009792;28;20255;-58
2023/06/03 08:43:04;;;;;;;12.70;6.70;;;14.00;53.20;;;;;;5010574;28;20227;-56
2023/06/03 08:45:43;;;;;;;11.43;5.93;;;13.90;53.30;;;;;;5010486;28;20196;-57
2023/06/03 08:48:26;;;;;;;9.48;3.60;;;13.90;53.30;;;;;;5010179;28;20256;-54
2023/06/03 08:51:04;;;;;;;8.65;3.78;;;13.90;53.30;;;;;;5009756;28;20255;-57
2023/06/03 08:53:43;;;;;;;9.30;2.92;;;13.80;53.30;;;;;;5010841;28;20216;-57
2023/06/03 08:56:14;;;;;;;8.73;3.33;;;13.80;53.20;;;;;;5010406;28;20201;-57
2023/06/03 08:58:49;;;;;;;9.07;3.50;;;13.80;53.20;;;;;;5010929;28;20275;-54
2023/06/03 09:01:25;;;;;;;8.02;2.80;;;13.80;53.20;;;;;;5010507;28;20605;-57
2023/06/03 09:03:57;;;;;;;6.65;2.75;;;13.70;53.20;;;;;;5012665;28;20196;-58
2023/06/03 09:06:28;;;;;;;8.30;3.10;;;13.70;53.20;;;;;;5014578;28;20200;-57
2023/06/03 09:09:00;;;;;;;10.35;2.80;;;13.70;53.20;;;;;;5014259;28;20248;-56
2023/06/03 09:11:31;;;;;;;8.50;3.53;;;13.70;53.20;;;;;;5013881;28;20197;-58
2023/06/03 09:14:03;;;;;;;13.00;8.45;;;13.60;53.20;;;;;;5014447;28;20196;-58
2023/06/03 09:16:37;;;;;;;10.68;6.15;;;13.60;53.10;;;;;;5013887;28;20661;-54
2023/06/03 09:19:08;;;;;;;9.98;5.18;;;13.60;53.20;;;;;;5014451;28;20224;-57
2023/06/03 09:21:42;;;;;;;8.07;4.10;;;13.50;53.10;;;;;;5014734;28;20255;-57
2023/06/03 09:24:14;;;;;;;6.85;2.90;;;13.50;53.20;;;;;;5014460;28;20204;-53
2023/06/03 09:26:45;;;;;;;6.65;2.47;;;13.50;53.30;;;;;;5013667;28;20664;-53
2023/06/03 09:29:17;;;;;;;6.70;2.50;;;13.40;53.30;;;;;;5013989;28;20200;-53
2023/06/03 09:31:50;;;;;;;7.05;4.50;;;13.40;53.40;;;;;;5013759;28;20225;-54
2023/06/03 09:34:22;;;;;;;10.80;6.30;;;13.40;53.50;;;;;;5013557;28;20255;-58
2023/06/03 09:36:52;;;;;;;13.80;8.20;;;13.40;53.60;;;;;;5014035;28;20200;-53
2023/06/03 09:39:35;;;;;;;8.35;4.03;;;13.40;53.70;;;;;;5013851;28;20229;-55
2023/06/03 09:42:07;;;;;;;8.60;3.08;;;13.30;53.80;;;;;;5013795;28;20732;-56
2023/06/03 09:44:45;;;;;;;6.63;2.40;;;13.30;53.80;;;;;;5013804;28;20208;-52
2023/06/03 09:47:19;;;;;;;5.82;2.53;;;13.30;53.90;;;;;;5013292;28;20263;-55
2023/06/03 09:50:06;;;;;;;7.43;3.50;;;13.30;53.90;;;;;;5013790;28;20197;-54
2023/06/03 09:52:38;;;;;;;15.65;11.40;;;13.20;53.90;;;;;;5013672;28;20283;-58
2023/06/03 09:55:09;;;;;;;15.73;9.98;;;13.20;54.00;;;;;;5013041;28;20201;-55
2023/06/03 09:57:40;;;;;;;14.45;8.15;;;13.20;54.10;;;;;;5013376;28;20200;-56
2023/06/03 10:00:12;;;;;;;21.17;11.82;;;13.10;54.10;;;;;;5013366;28;20271;-56
2023/06/03 10:02:46;;;;;;;20.52;11.57;;;13.10;54.30;;;;;;5013389;28;20279;-54
2023/06/03 10:05:37;;;;;;;26.65;11.60;;;13.10;54.40;;;;;;5012961;28;20370;-52
2023/06/03 10:08:07;;;;;;;27.90;15.85;;;13.10;54.60;;;;;;5008315;28;20258;-58
2023/06/03 10:10:55;;;;;;;30.17;17.60;;;13.10;54.60;;;;;;5012210;28;20197;-58
2023/06/03 10:13:26;;;;;;;21.98;13.63;;;13.10;54.70;;;;;;5013066;28;20751;-55
2023/06/03 10:15:58;;;;;;;19.00;10.23;;;13.10;54.80;;;;;;5012178;28;20255;-57
2023/06/03 10:18:44;;;;;;;18.42;9.18;;;13.10;54.90;;;;;;5012745;28;20196;-54
2023/06/03 10:21:15;;;;;;;19.13;9.93;;;13.10;55.00;;;;;;5013331;28;20616;-55
2023/06/03 10:23:46;;;;;;;15.93;7.78;;;13.10;55.00;;;;;;5012910;28;20203;-52
2023/06/03 10:26:18;;;;;;;14.48;9.15;;;13.10;55.70;;;;;;5012249;28;20263;-56
2023/06/03 10:28:49;;;;;;;12.25;7.75;;;13.10;55.10;;;;;;5012780;28;20199;-56
2023/06/03 10:31:22;;;;;;;14.40;9.88;;;13.00;55.10;;;;;;5012356;28;20193;-58
2023/06/03 10:33:56;;;;;;;20.02;13.20;;;13.00;55.20;;;;;;5012734;28;20201;-57
2023/06/03 10:36:27;;;;;;;24.38;13.90;;;13.00;55.20;;;;;;5012930;28;20200;-56
2023/06/03 10:39:02;;;;;;;19.67;13.20;;;13.00;55.30;;;;;;5012764;28;20625;-55
2023/06/03 10:41:34;;;;;;;15.38;9.20;;;13.00;55.30;;;;;;5012582;28;20197;-57
2023/06/03 10:44:05;;;;;;;11.85;7.15;;;13.00;55.30;;;;;;5011950;28;20608;-56
2023/06/03 10:46:37;;;;;;;11.35;7.10;;;12.90;55.30;;;;;;5011582;28;20266;-56
2023/06/03 10:49:10;;;;;;;13.45;5.93;;;12.90;55.30;;;;;;5012149;28;20276;-58
2023/06/03 10:51:55;;;;;;;8.15;4.38;;;12.90;55.30;;;;;;5012633;28;20561;-56
2023/06/03 10:54:46;;;;;;;10.70;3.45;;;12.90;55.40;;;;;;5011822;28;20247;-57
2023/06/03 10:57:20;;;;;;;9.73;3.67;;;12.90;55.30;;;;;;5012012;28;20616;-54
2023/06/03 10:59:51;;;;;;;6.90;3.53;;;12.90;55.30;;;;;;5012318;28;20243;-56
2023/06/03 11:02:22;;;;;;;8.70;3.25;;;12.90;55.30;;;;;;5012049;28;20231;-57
2023/06/03 11:05:23;;;;;;;5.35;2.90;;;12.80;55.30;;;;;;5011553;28;20204;-56
2023/06/03 11:07:54;;;;;;;6.85;2.28;;;12.90;55.40;;;;;;5011353;28;20192;-57
2023/06/03 11:10:45;;;;;;;5.55;2.05;;;12.80;55.40;;;;;;5011765;28;20250;-54
2023/06/03 11:13:44;;;;;;;5.57;2.20;;;12.80;55.40;;;;;;5008834;28;20355;-58
2023/06/03 11:16:15;;;;;;;6.18;2.17;;;12.80;55.40;;;;;;5011362;28;20262;-53
2023/06/03 11:18:45;;;;;;;5.57;2.28;;;12.80;55.40;;;;;;5012014;28;20538;-57
2023/06/03 11:21:47;;;;;;;7.25;2.40;;;12.80;55.40;;;;;;5012686;28;20251;-57
2023/06/03 11:24:54;;;;;;;6.03;2.53;;;12.80;55.50;;;;;;5011465;28;20196;-57
2023/06/03 11:27:26;;;;;;;6.57;2.72;;;12.70;55.40;;;;;;5011645;28;20723;-57
2023/06/03 11:29:58;;;;;;;5.53;2.65;;;12.70;55.30;;;;;;5012227;28;20205;-58
2023/06/03 11:32:30;;;;;;;4.32;2.10;;;12.70;55.30;;;;;;5011753;28;20212;-57
2023/06/03 11:35:29;;;;;;;7.45;2.80;;;12.70;55.30;;;;;;5011701;28;20263;-54
2023/06/03 11:37:59;;;;;;;5.63;2.70;;;12.60;55.20;;;;;;5010835;28;20188;-58
2023/06/03 11:40:46;;;;;;;7.95;3.30;;;12.70;55.20;;;;;;5011337;28;20283;-58
2023/06/03 11:43:16;;;;;;;8.63;4.00;;;12.60;55.20;;;;;;5011727;28;20216;-55
2023/06/03 11:45:47;;;;;;;5.60;3.53;;;12.60;55.10;;;;;;5011376;28;20266;-54
2023/06/03 11:48:27;;;;;;;5.05;2.70;;;12.60;55.10;;;;;;5011273;28;20266;-54
2023/06/03 11:50:58;;;;;;;4.47;1.77;;;12.60;55.10;;;;;;5011245;28;20196;-55
2023/06/03 11:53:35;;;;;;;4.90;1.75;;;12.60;55.00;;;;;;5010203;28;20225;-57
2023/06/03 11:56:10;;;;;;;2.20;1.10;;;12.50;55.00;;;;;;5011781;28;20192;-55
2023/06/03 11:58:41;;;;;;;3.13;1.17;;;12.60;54.90;;;;;;5011605;28;20196;-57
2023/06/03 12:01:16;;;;;;;5.95;1.20;;;12.50;54.90;;;;;;5011411;28;20227;-55
2023/06/03 12:04:01;;;;;;;3.53;1.27;;;12.50;54.80;;;;;;5011147;28;20200;-55
2023/06/03 12:06:36;;;;;;;1.80;0.95;;;12.50;54.80;;;;;;5011060;28;20192;-54
2023/06/03 12:09:07;;;;;;;5.32;1.25;;;12.50;54.70;;;;;;5011155;28;20208;-56
2023/06/03 12:11:41;;;;;;;3.45;1.40;;;12.50;54.60;;;;;;5011053;28;20196;-56
2023/06/03 12:14:12;;;;;;;5.45;1.88;;;12.50;54.50;;;;;;5011009;28;20201;-54
2023/06/03 12:16:44;;;;;;;4.82;1.63;;;12.50;54.50;;;;;;5011056;28;20204;-56
2023/06/03 12:19:14;;;;;;;5.28;2.13;;;12.40;54.30;;;;;;5011358;28;20200;-54
2023/06/03 12:21:45;;;;;;;5.13;2.55;;;12.40;54.20;;;;;;5011690;28;20217;-55
2023/06/03 12:24:17;;;;;;;4.07;2.13;;;12.40;54.10;;;;;;5011452;28;20616;-57
2023/06/03 12:26:50;;;;;;;4.00;1.90;;;12.40;54.10;;;;;;5010167;28;20222;-54
2023/06/03 12:29:21;;;;;;;4.60;1.92;;;12.40;54.00;;;;;;5011496;28;20255;-54
2023/06/03 12:32:02;;;;;;;4.13;1.48;;;12.30;54.00;;;;;;5011427;28;20298;-55
2023/06/03 12:34:36;;;;;;;3.13;1.42;;;12.30;53.90;;;;;;5010965;28;20196;-52
2023/06/03 12:37:08;;;;;;;3.42;1.55;;;12.30;53.90;;;;;;5009405;28;20225;-57
2023/06/03 12:39:51;;;;;;;4.72;1.73;;;12.30;53.80;;;;;;5014728;28;20275;-55
2023/06/03 12:42:35;;;;;;;4.60;1.63;;;12.20;53.70;;;;;;5015056;28;20657;-55
2023/06/03 12:45:07;;;;;;;4.43;1.42;;;12.20;53.60;;;;;;5015074;28;20209;-54
2023/06/03 12:47:48;;;;;;;2.95;1.25;;;12.20;53.60;;;;;;5015010;28;20197;-55
2023/06/03 12:50:20;;;;;;;2.75;1.30;;;12.20;53.60;;;;;;5014833;28;20542;-55
2023/06/03 12:52:51;;;;;;;2.95;0.98;;;12.20;53.50;;;;;;5014833;28;20227;-54
2023/06/03 12:55:26;;;;;;;7.38;6.68;;;12.20;53.50;;;;;;5014013;28;20279;-55
2023/06/03 12:57:58;;;;;;;9.02;7.32;;;12.20;54.30;;;;;;5013732;28;20672;-54
2023/06/03 13:00:31;;;;;;;6.25;5.05;;;12.20;55.30;;;;;;5014126;28;20572;-53
2023/06/03 13:03:01;;;;;;;4.72;4.22;;;12.20;55.20;;;;;;5014120;28;20307;-54
2023/06/03 13:05:36;;;;;;;5.50;3.15;;;12.20;54.90;;;;;;5014486;28;20264;-56
2023/06/03 13:08:09;;;;;;;5.55;3.17;;;12.30;54.70;;;;;;5014087;28;20204;-55
2023/06/03 13:10:40;;;;;;;5.30;3.67;;;12.30;54.60;;;;;;5014420;28;20204;-57
2023/06/03 13:13:12;;;;;;;4.22;3.20;;;12.40;54.50;;;;;;5014418;28;20221;-55
2023/06/03 13:15:44;;;;;;;5.40;3.35;;;12.30;54.50;;;;;;5013939;28;20251;-58